Mammoth Hot Springs, Wyoming
Current Conditions -  °F | °C
As of 12:35 PM on Tuesday 21 Oct 2014 (Local Time) from KWYS Reporting Station
Light Rain Light Rain  
Wind Chill: 26°   Ceiling: 800
Heat Index: 36°   Visibility: 5mi
Dew Point: 36°   Wind: 15mph
Humidity: 100%   Direction: 210°SSW
Pressure: 29.97"   Gusts: 28mph
Location:  44.5747°N, 110.518°W
Report Text: KWYS 211835Z AUTO 21013G24KT 5SM -RA BKN008 BKN012 02/02 A2997 RMK AO2 P0001
Loading
Personal Weather Stations






























Interactive Weather Map
Tropical Storm Tracking
New forecast layout! Learn more

10-Day Weather Forecast

Advertisements
Track Severe Weather on mobile